sensor_id;sensor_type;location;lat;lon;timestamp;P1;durP1;ratioP1;P2;durP2;ratioP2
3801;SDS011;1916;51.798;12.246;2023-04-21T00:01:56;19.07;;;9.43;;
3801;SDS011;1916;51.798;12.246;2023-04-21T00:04:00;21.03;;;10.43;;
3801;SDS011;1916;51.798;12.246;2023-04-21T00:06:03;25.30;;;10.30;;
3801;SDS011;1916;51.798;12.246;2023-04-21T00:08:10;21.03;;;9.77;;
3801;SDS011;1916;51.798;12.246;2023-04-21T00:10:12;15.00;;;10.20;;
3801;SDS011;1916;51.798;12.246;2023-04-21T00:12:14;13.97;;;10.07;;
3801;SDS011;1916;51.798;12.246;2023-04-21T00:14:16;16.07;;;10.27;;
3801;SDS011;1916;51.798;12.246;2023-04-21T00:16:18;14.00;;;9.80;;
3801;SDS011;1916;51.798;12.246;2023-04-21T00:18:20;16.27;;;10.67;;
3801;SDS011;1916;51.798;12.246;2023-04-21T00:20:23;16.00;;;10.40;;
3801;SDS011;1916;51.798;12.246;2023-04-21T00:22:27;15.57;;;9.10;;
3801;SDS011;1916;51.798;12.246;2023-04-21T00:24:29;18.00;;;9.80;;
3801;SDS011;1916;51.798;12.246;2023-04-21T00:26:31;17.97;;;10.03;;
3801;SDS011;1916;51.798;12.246;2023-04-21T00:28:33;12.30;;;9.10;;
3801;SDS011;1916;51.798;12.246;2023-04-21T00:30:37;13.83;;;10.20;;
3801;SDS011;1916;51.798;12.246;2023-04-21T00:32:39;23.10;;;10.80;;
3801;SDS011;1916;51.798;12.246;2023-04-21T00:34:41;14.23;;;9.80;;
3801;SDS011;1916;51.798;12.246;2023-04-21T00:36:45;15.20;;;9.43;;
3801;SDS011;1916;51.798;12.246;2023-04-21T00:38:47;14.30;;;10.43;;
3801;SDS011;1916;51.798;12.246;2023-04-21T00:40:49;11.20;;;9.10;;
3801;SDS011;1916;51.798;12.246;2023-04-21T00:42:52;20.83;;;10.57;;
3801;SDS011;1916;51.798;12.246;2023-04-21T00:44:54;11.90;;;10.03;;
3801;SDS011;1916;51.798;12.246;2023-04-21T00:46:57;14.27;;;9.70;;
3801;SDS011;1916;51.798;12.246;2023-04-21T00:48:59;14.43;;;10.13;;
3801;SDS011;1916;51.798;12.246;2023-04-21T00:51:05;13.73;;;11.20;;
3801;SDS011;1916;51.798;12.246;2023-04-21T00:53:08;15.10;;;9.77;;
3801;SDS011;1916;51.798;12.246;2023-04-21T00:55:10;19.13;;;10.70;;
3801;SDS011;1916;51.798;12.246;2023-04-21T00:57:12;16.70;;;11.50;;
3801;SDS011;1916;51.798;12.246;2023-04-21T00:59:14;17.70;;;10.37;;
3801;SDS011;1916;51.798;12.246;2023-04-21T01:01:17;19.67;;;9.73;;
3801;SDS011;1916;51.798;12.246;2023-04-21T01:03:19;16.30;;;11.03;;
3801;SDS011;1916;51.798;12.246;2023-04-21T01:05:21;20.10;;;10.00;;
3801;SDS011;1916;51.798;12.246;2023-04-21T01:07:24;14.40;;;10.00;;
3801;SDS011;1916;51.798;12.246;2023-04-21T01:09:26;13.40;;;10.50;;
3801;SDS011;1916;51.798;12.246;2023-04-21T01:11:29;25.90;;;10.23;;
3801;SDS011;1916;51.798;12.246;2023-04-21T01:13:33;15.60;;;9.80;;
3801;SDS011;1916;51.798;12.246;2023-04-21T01:15:35;16.43;;;10.40;;
3801;SDS011;1916;51.798;12.246;2023-04-21T01:17:38;13.80;;;10.67;;
3801;SDS011;1916;51.798;12.246;2023-04-21T01:19:41;11.47;;;10.27;;
3801;SDS011;1916;51.798;12.246;2023-04-21T01:21:43;20.93;;;11.13;;
3801;SDS011;1916;51.798;12.246;2023-04-21T01:23:46;15.00;;;10.50;;
3801;SDS011;1916;51.798;12.246;2023-04-21T01:25:48;18.83;;;10.10;;
3801;SDS011;1916;51.798;12.246;2023-04-21T01:27:51;23.13;;;11.33;;
3801;SDS011;1916;51.798;12.246;2023-04-21T01:29:55;17.23;;;10.13;;
3801;SDS011;1916;51.798;12.246;2023-04-21T01:31:57;15.23;;;10.43;;
3801;SDS011;1916;51.798;12.246;2023-04-21T01:34:02;15.37;;;10.90;;
3801;SDS011;1916;51.798;12.246;2023-04-21T01:36:05;13.10;;;10.43;;
3801;SDS011;1916;51.798;12.246;2023-04-21T01:38:07;17.40;;;12.10;;
3801;SDS011;1916;51.798;12.246;2023-04-21T01:40:09;18.43;;;11.10;;
3801;SDS011;1916;51.798;12.246;2023-04-21T01:42:12;13.83;;;11.40;;
3801;SDS011;1916;51.798;12.246;2023-04-21T01:44:15;19.73;;;10.33;;
3801;SDS011;1916;51.798;12.246;2023-04-21T01:46:18;17.73;;;11.20;;
3801;SDS011;1916;51.798;12.246;2023-04-21T01:48:21;22.73;;;11.87;;
3801;SDS011;1916;51.798;12.246;2023-04-21T01:50:23;14.90;;;11.00;;
3801;SDS011;1916;51.798;12.246;2023-04-21T01:52:25;16.37;;;12.30;;
3801;SDS011;1916;51.798;12.246;2023-04-21T01:54:28;16.27;;;11.03;;
3801;SDS011;1916;51.798;12.246;2023-04-21T01:56:30;21.30;;;12.13;;
3801;SDS011;1916;51.798;12.246;2023-04-21T01:58:33;17.73;;;12.10;;
3801;SDS011;1916;51.798;12.246;2023-04-21T02:00:36;15.90;;;10.13;;
3801;SDS011;1916;51.798;12.246;2023-04-21T02:02:38;18.37;;;10.10;;
3801;SDS011;1916;51.798;12.246;2023-04-21T02:04:41;22.60;;;11.77;;
3801;SDS011;1916;51.798;12.246;2023-04-21T02:06:43;21.90;;;11.83;;
3801;SDS011;1916;51.798;12.246;2023-04-21T02:08:45;15.43;;;9.97;;
3801;SDS011;1916;51.798;12.246;2023-04-21T02:10:48;15.57;;;12.13;;
3801;SDS011;1916;51.798;12.246;2023-04-21T02:12:50;23.20;;;10.60;;
3801;SDS011;1916;51.798;12.246;2023-04-21T02:14:52;21.20;;;10.83;;
3801;SDS011;1916;51.798;12.246;2023-04-21T02:16:54;11.87;;;10.23;;
3801;SDS011;1916;51.798;12.246;2023-04-21T02:18:57;17.57;;;10.60;;
3801;SDS011;1916;51.798;12.246;2023-04-21T02:21:01;22.73;;;10.57;;
3801;SDS011;1916;51.798;12.246;2023-04-21T02:23:03;21.20;;;11.60;;
3801;SDS011;1916;51.798;12.246;2023-04-21T02:25:05;14.83;;;10.57;;
3801;SDS011;1916;51.798;12.246;2023-04-21T02:27:08;16.37;;;10.47;;
3801;SDS011;1916;51.798;12.246;2023-04-21T02:29:10;16.13;;;10.67;;
3801;SDS011;1916;51.798;12.246;2023-04-21T02:31:12;21.70;;;10.30;;
3801;SDS011;1916;51.798;12.246;2023-04-21T02:33:14;16.50;;;11.17;;
3801;SDS011;1916;51.798;12.246;2023-04-21T02:35:16;14.73;;;10.13;;
3801;SDS011;1916;51.798;12.246;2023-04-21T02:37:18;20.10;;;10.83;;
3801;SDS011;1916;51.798;12.246;2023-04-21T02:39:21;20.73;;;11.20;;
3801;SDS011;1916;51.798;12.246;2023-04-21T02:41:23;14.10;;;9.30;;
3801;SDS011;1916;51.798;12.246;2023-04-21T02:43:25;30.57;;;11.43;;
3801;SDS011;1916;51.798;12.246;2023-04-21T02:45:29;22.83;;;11.80;;
3801;SDS011;1916;51.798;12.246;2023-04-21T02:47:31;12.83;;;10.80;;
3801;SDS011;1916;51.798;12.246;2023-04-21T02:49:33;14.87;;;10.50;;
3801;SDS011;1916;51.798;12.246;2023-04-21T02:51:35;22.33;;;10.77;;
3801;SDS011;1916;51.798;12.246;2023-04-21T02:53:38;13.23;;;10.33;;
3801;SDS011;1916;51.798;12.246;2023-04-21T02:55:41;22.40;;;11.03;;
3801;SDS011;1916;51.798;12.246;2023-04-21T02:57:43;17.33;;;11.00;;
3801;SDS011;1916;51.798;12.246;2023-04-21T02:59:45;16.87;;;10.20;;
3801;SDS011;1916;51.798;12.246;2023-04-21T03:01:47;14.57;;;9.70;;
3801;SDS011;1916;51.798;12.246;2023-04-21T03:03:49;18.30;;;11.17;;
3801;SDS011;1916;51.798;12.246;2023-04-21T03:05:58;17.37;;;10.50;;
3801;SDS011;1916;51.798;12.246;2023-04-21T03:08:04;21.87;;;10.33;;
3801;SDS011;1916;51.798;12.246;2023-04-21T03:10:08;15.23;;;9.80;;
3801;SDS011;1916;51.798;12.246;2023-04-21T03:12:11;16.63;;;9.93;;
3801;SDS011;1916;51.798;12.246;2023-04-21T03:14:13;25.20;;;9.47;;
3801;SDS011;1916;51.798;12.246;2023-04-21T03:16:15;17.53;;;10.90;;
3801;SDS011;1916;51.798;12.246;2023-04-21T03:18:17;14.93;;;9.40;;
3801;SDS011;1916;51.798;12.246;2023-04-21T03:20:20;16.83;;;10.40;;
3801;SDS011;1916;51.798;12.246;2023-04-21T03:22:22;15.80;;;10.70;;
3801;SDS011;1916;51.798;12.246;2023-04-21T03:24:24;24.03;;;11.07;;
3801;SDS011;1916;51.798;12.246;2023-04-21T03:26:26;15.27;;;9.80;;
3801;SDS011;1916;51.798;12.246;2023-04-21T03:28:29;14.63;;;9.83;;
3801;SDS011;1916;51.798;12.246;2023-04-21T03:30:31;20.97;;;11.10;;
3801;SDS011;1916;51.798;12.246;2023-04-21T03:32:33;13.80;;;10.30;;
3801;SDS011;1916;51.798;12.246;2023-04-21T03:34:35;16.83;;;10.53;;
3801;SDS011;1916;51.798;12.246;2023-04-21T03:36:38;16.47;;;10.17;;
3801;SDS011;1916;51.798;12.246;2023-04-21T03:38:41;16.77;;;9.80;;
3801;SDS011;1916;51.798;12.246;2023-04-21T03:40:43;17.07;;;9.73;;
3801;SDS011;1916;51.798;12.246;2023-04-21T03:42:45;15.83;;;9.37;;
3801;SDS011;1916;51.798;12.246;2023-04-21T03:44:47;30.80;;;10.13;;
3801;SDS011;1916;51.798;12.246;2023-04-21T03:46:51;19.30;;;9.40;;
3801;SDS011;1916;51.798;12.246;2023-04-21T03:48:55;20.83;;;10.20;;
3801;SDS011;1916;51.798;12.246;2023-04-21T03:50:58;17.60;;;10.33;;
3801;SDS011;1916;51.798;12.246;2023-04-21T03:53:00;16.77;;;10.43;;
3801;SDS011;1916;51.798;12.246;2023-04-21T03:55:01;20.13;;;9.60;;
3801;SDS011;1916;51.798;12.246;2023-04-21T03:57:05;16.37;;;9.63;;
3801;SDS011;1916;51.798;12.246;2023-04-21T03:59:07;16.13;;;9.70;;
3801;SDS011;1916;51.798;12.246;2023-04-21T04:01:09;26.73;;;9.33;;
3801;SDS011;1916;51.798;12.246;2023-04-21T04:03:11;15.10;;;10.10;;
3801;SDS011;1916;51.798;12.246;2023-04-21T04:05:13;17.53;;;9.23;;
3801;SDS011;1916;51.798;12.246;2023-04-21T04:07:16;17.57;;;9.50;;
3801;SDS011;1916;51.798;12.246;2023-04-21T04:09:18;19.27;;;9.47;;
3801;SDS011;1916;51.798;12.246;2023-04-21T04:11:20;20.00;;;9.53;;
3801;SDS011;1916;51.798;12.246;2023-04-21T04:13:22;18.47;;;10.73;;
3801;SDS011;1916;51.798;12.246;2023-04-21T04:15:27;26.10;;;9.90;;
3801;SDS011;1916;51.798;12.246;2023-04-21T04:17:28;18.63;;;10.57;;
3801;SDS011;1916;51.798;12.246;2023-04-21T04:19:31;14.57;;;10.30;;
3801;SDS011;1916;51.798;12.246;2023-04-21T04:21:33;19.73;;;10.40;;
3801;SDS011;1916;51.798;12.246;2023-04-21T04:23:35;17.23;;;9.73;;
3801;SDS011;1916;51.798;12.246;2023-04-21T04:25:38;17.70;;;9.50;;
3801;SDS011;1916;51.798;12.246;2023-04-21T04:27:40;14.33;;;11.07;;
3801;SDS011;1916;51.798;12.246;2023-04-21T04:29:44;22.03;;;11.30;;
3801;SDS011;1916;51.798;12.246;2023-04-21T04:31:48;13.73;;;9.93;;
3801;SDS011;1916;51.798;12.246;2023-04-21T04:33:51;18.20;;;10.30;;
3801;SDS011;1916;51.798;12.246;2023-04-21T04:35:56;20.37;;;9.37;;
3801;SDS011;1916;51.798;12.246;2023-04-21T04:37:59;18.17;;;10.70;;
3801;SDS011;1916;51.798;12.246;2023-04-21T04:40:01;15.70;;;9.93;;
3801;SDS011;1916;51.798;12.246;2023-04-21T04:42:06;14.37;;;10.20;;
3801;SDS011;1916;51.798;12.246;2023-04-21T04:44:10;16.67;;;10.23;;
3801;SDS011;1916;51.798;12.246;2023-04-21T04:46:12;18.90;;;11.10;;
3801;SDS011;1916;51.798;12.246;2023-04-21T04:48:14;16.93;;;10.30;;
3801;SDS011;1916;51.798;12.246;2023-04-21T04:50:16;17.30;;;10.00;;
3801;SDS011;1916;51.798;12.246;2023-04-21T04:52:18;20.03;;;9.97;;
3801;SDS011;1916;51.798;12.246;2023-04-21T04:54:20;12.87;;;10.50;;
3801;SDS011;1916;51.798;12.246;2023-04-21T04:56:23;17.13;;;11.07;;
3801;SDS011;1916;51.798;12.246;2023-04-21T04:58:25;17.13;;;10.30;;
3801;SDS011;1916;51.798;12.246;2023-04-21T05:00:27;19.00;;;10.70;;
3801;SDS011;1916;51.798;12.246;2023-04-21T05:02:29;22.27;;;10.90;;
3801;SDS011;1916;51.798;12.246;2023-04-21T05:04:35;18.30;;;11.47;;
3801;SDS011;1916;51.798;12.246;2023-04-21T05:06:37;17.60;;;11.23;;
3801;SDS011;1916;51.798;12.246;2023-04-21T05:08:39;16.60;;;10.70;;
3801;SDS011;1916;51.798;12.246;2023-04-21T05:10:42;19.37;;;11.93;;
3801;SDS011;1916;51.798;12.246;2023-04-21T05:12:44;19.20;;;11.70;;
3801;SDS011;1916;51.798;12.246;2023-04-21T05:14:47;16.40;;;11.10;;
3801;SDS011;1916;51.798;12.246;2023-04-21T05:16:49;22.90;;;10.63;;
3801;SDS011;1916;51.798;12.246;2023-04-21T05:18:51;21.83;;;11.27;;
3801;SDS011;1916;51.798;12.246;2023-04-21T05:20:54;20.10;;;11.27;;
3801;SDS011;1916;51.798;12.246;2023-04-21T05:22:57;24.97;;;11.93;;
3801;SDS011;1916;51.798;12.246;2023-04-21T05:24:59;22.60;;;10.80;;
3801;SDS011;1916;51.798;12.246;2023-04-21T05:27:01;17.83;;;10.50;;
3801;SDS011;1916;51.798;12.246;2023-04-21T05:29:06;17.70;;;10.70;;
3801;SDS011;1916;51.798;12.246;2023-04-21T05:31:08;16.73;;;9.93;;
3801;SDS011;1916;51.798;12.246;2023-04-21T05:33:10;18.97;;;11.80;;
3801;SDS011;1916;51.798;12.246;2023-04-21T05:35:12;19.53;;;10.00;;
3801;SDS011;1916;51.798;12.246;2023-04-21T05:37:14;17.53;;;10.97;;
3801;SDS011;1916;51.798;12.246;2023-04-21T05:39:16;17.70;;;10.77;;
3801;SDS011;1916;51.798;12.246;2023-04-21T05:41:18;20.83;;;11.27;;
3801;SDS011;1916;51.798;12.246;2023-04-21T05:43:22;20.87;;;11.03;;
3801;SDS011;1916;51.798;12.246;2023-04-21T05:45:24;19.93;;;9.83;;
3801;SDS011;1916;51.798;12.246;2023-04-21T05:47:26;14.70;;;11.00;;
3801;SDS011;1916;51.798;12.246;2023-04-21T05:49:28;18.93;;;10.70;;
3801;SDS011;1916;51.798;12.246;2023-04-21T05:51:30;16.43;;;9.37;;
3801;SDS011;1916;51.798;12.246;2023-04-21T05:53:33;21.10;;;11.10;;
3801;SDS011;1916;51.798;12.246;2023-04-21T05:55:35;24.93;;;9.67;;
3801;SDS011;1916;51.798;12.246;2023-04-21T05:57:37;21.10;;;10.67;;
3801;SDS011;1916;51.798;12.246;2023-04-21T05:59:39;18.10;;;10.70;;
3801;SDS011;1916;51.798;12.246;2023-04-21T06:01:41;16.47;;;10.00;;
3801;SDS011;1916;51.798;12.246;2023-04-21T06:03:44;17.43;;;10.33;;
3801;SDS011;1916;51.798;12.246;2023-04-21T06:05:46;20.30;;;10.13;;
3801;SDS011;1916;51.798;12.246;2023-04-21T06:07:48;18.10;;;10.13;;
3801;SDS011;1916;51.798;12.246;2023-04-21T06:09:50;12.47;;;9.47;;
3801;SDS011;1916;51.798;12.246;2023-04-21T06:11:53;19.00;;;10.03;;
3801;SDS011;1916;51.798;12.246;2023-04-21T06:13:54;12.80;;;9.00;;
3801;SDS011;1916;51.798;12.246;2023-04-21T06:15:59;19.80;;;10.27;;
3801;SDS011;1916;51.798;12.246;2023-04-21T06:18:01;12.33;;;9.23;;
3801;SDS011;1916;51.798;12.246;2023-04-21T06:20:03;19.07;;;8.70;;
3801;SDS011;1916;51.798;12.246;2023-04-21T06:22:05;16.90;;;9.70;;
3801;SDS011;1916;51.798;12.246;2023-04-21T06:24:08;18.47;;;8.80;;
3801;SDS011;1916;51.798;12.246;2023-04-21T06:26:10;13.47;;;8.70;;
3801;SDS011;1916;51.798;12.246;2023-04-21T06:28:12;15.53;;;9.17;;
3801;SDS011;1916;51.798;12.246;2023-04-21T06:30:14;15.03;;;9.97;;
3801;SDS011;1916;51.798;12.246;2023-04-21T06:32:16;24.37;;;9.63;;
3801;SDS011;1916;51.798;12.246;2023-04-21T06:34:18;18.30;;;9.73;;
3801;SDS011;1916;51.798;12.246;2023-04-21T06:36:22;18.50;;;9.10;;
3801;SDS011;1916;51.798;12.246;2023-04-21T06:38:24;16.33;;;9.80;;
3801;SDS011;1916;51.798;12.246;2023-04-21T06:40:26;21.13;;;9.90;;
3801;SDS011;1916;51.798;12.246;2023-04-21T06:42:28;17.57;;;10.50;;
3801;SDS011;1916;51.798;12.246;2023-04-21T06:44:30;17.07;;;10.40;;
3801;SDS011;1916;51.798;12.246;2023-04-21T06:46:33;18.30;;;9.10;;
3801;SDS011;1916;51.798;12.246;2023-04-21T06:48:35;13.63;;;9.50;;
3801;SDS011;1916;51.798;12.246;2023-04-21T06:50:37;20.73;;;10.00;;
3801;SDS011;1916;51.798;12.246;2023-04-21T06:52:39;13.83;;;9.40;;
3801;SDS011;1916;51.798;12.246;2023-04-21T06:54:41;18.77;;;10.73;;
3801;SDS011;1916;51.798;12.246;2023-04-21T06:56:43;16.43;;;9.87;;
3801;SDS011;1916;51.798;12.246;2023-04-21T06:58:45;17.73;;;10.60;;
3801;SDS011;1916;51.798;12.246;2023-04-21T07:00:47;17.70;;;9.30;;
3801;SDS011;1916;51.798;12.246;2023-04-21T07:02:50;16.60;;;10.37;;
3801;SDS011;1916;51.798;12.246;2023-04-21T07:04:52;21.50;;;10.97;;
3801;SDS011;1916;51.798;12.246;2023-04-21T07:06:54;15.00;;;9.13;;
3801;SDS011;1916;51.798;12.246;2023-04-21T07:08:57;15.53;;;9.30;;
3801;SDS011;1916;51.798;12.246;2023-04-21T07:10:59;21.23;;;10.17;;
3801;SDS011;1916;51.798;12.246;2023-04-21T07:13:01;19.57;;;9.00;;
3801;SDS011;1916;51.798;12.246;2023-04-21T07:15:03;15.63;;;9.30;;
3801;SDS011;1916;51.798;12.246;2023-04-21T07:17:07;17.87;;;9.17;;
3801;SDS011;1916;51.798;12.246;2023-04-21T07:19:09;15.97;;;9.67;;
3801;SDS011;1916;51.798;12.246;2023-04-21T07:21:11;17.63;;;10.60;;
3801;SDS011;1916;51.798;12.246;2023-04-21T07:23:13;13.80;;;9.40;;
3801;SDS011;1916;51.798;12.246;2023-04-21T07:25:15;19.70;;;9.60;;
3801;SDS011;1916;51.798;12.246;2023-04-21T07:27:18;18.50;;;9.53;;
3801;SDS011;1916;51.798;12.246;2023-04-21T07:29:20;19.03;;;9.77;;
3801;SDS011;1916;51.798;12.246;2023-04-21T07:31:22;22.20;;;10.03;;
3801;SDS011;1916;51.798;12.246;2023-04-21T07:33:25;15.87;;;10.30;;
3801;SDS011;1916;51.798;12.246;2023-04-21T07:35:27;13.70;;;9.93;;
3801;SDS011;1916;51.798;12.246;2023-04-21T07:37:29;19.30;;;10.43;;
3801;SDS011;1916;51.798;12.246;2023-04-21T07:39:31;15.83;;;9.93;;
3801;SDS011;1916;51.798;12.246;2023-04-21T07:41:33;17.43;;;9.90;;
3801;SDS011;1916;51.798;12.246;2023-04-21T07:43:35;18.10;;;10.73;;
3801;SDS011;1916;51.798;12.246;2023-04-21T07:45:37;16.10;;;10.27;;
3801;SDS011;1916;51.798;12.246;2023-04-21T07:47:39;15.50;;;10.67;;
3801;SDS011;1916;51.798;12.246;2023-04-21T07:49:42;20.10;;;10.10;;
3801;SDS011;1916;51.798;12.246;2023-04-21T07:51:44;15.50;;;9.50;;
3801;SDS011;1916;51.798;12.246;2023-04-21T07:53:46;12.93;;;9.57;;
3801;SDS011;1916;51.798;12.246;2023-04-21T07:55:48;18.00;;;10.13;;
3801;SDS011;1916;51.798;12.246;2023-04-21T07:57:50;15.60;;;10.10;;
3801;SDS011;1916;51.798;12.246;2023-04-21T07:59:52;16.30;;;10.63;;
3801;SDS011;1916;51.798;12.246;2023-04-21T08:01:54;21.57;;;9.73;;
3801;SDS011;1916;51.798;12.246;2023-04-21T08:03:57;19.30;;;10.47;;
3801;SDS011;1916;51.798;12.246;2023-04-21T08:05:59;17.90;;;9.33;;
3801;SDS011;1916;51.798;12.246;2023-04-21T08:08:02;17.10;;;10.30;;
3801;SDS011;1916;51.798;12.246;2023-04-21T08:10:05;18.10;;;10.60;;
3801;SDS011;1916;51.798;12.246;2023-04-21T08:12:08;16.53;;;10.27;;
3801;SDS011;1916;51.798;12.246;2023-04-21T08:14:10;20.27;;;10.13;;
3801;SDS011;1916;51.798;12.246;2023-04-21T08:16:12;17.90;;;10.43;;
3801;SDS011;1916;51.798;12.246;2023-04-21T08:18:15;12.90;;;8.87;;
3801;SDS011;1916;51.798;12.246;2023-04-21T08:20:23;16.27;;;10.20;;
3801;SDS011;1916;51.798;12.246;2023-04-21T08:22:25;20.40;;;10.70;;
3801;SDS011;1916;51.798;12.246;2023-04-21T08:24:27;16.70;;;11.70;;
3801;SDS011;1916;51.798;12.246;2023-04-21T08:26:29;15.40;;;10.07;;
3801;SDS011;1916;51.798;12.246;2023-04-21T08:28:31;17.93;;;11.07;;
3801;SDS011;1916;51.798;12.246;2023-04-21T08:30:33;13.50;;;9.17;;
3801;SDS011;1916;51.798;12.246;2023-04-21T08:32:35;16.00;;;10.17;;
3801;SDS011;1916;51.798;12.246;2023-04-21T08:34:37;18.33;;;8.83;;
3801;SDS011;1916;51.798;12.246;2023-04-21T08:36:39;15.33;;;10.07;;
3801;SDS011;1916;51.798;12.246;2023-04-21T08:38:43;21.90;;;10.80;;
3801;SDS011;1916;51.798;12.246;2023-04-21T08:40:45;22.90;;;10.77;;
3801;SDS011;1916;51.798;12.246;2023-04-21T08:42:48;18.27;;;9.33;;
3801;SDS011;1916;51.798;12.246;2023-04-21T08:44:50;18.70;;;10.27;;
3801;SDS011;1916;51.798;12.246;2023-04-21T08:46:53;13.23;;;9.17;;
3801;SDS011;1916;51.798;12.246;2023-04-21T08:48:57;17.57;;;9.83;;
3801;SDS011;1916;51.798;12.246;2023-04-21T08:50:59;13.67;;;9.30;;
3801;SDS011;1916;51.798;12.246;2023-04-21T08:53:02;14.93;;;9.20;;
3801;SDS011;1916;51.798;12.246;2023-04-21T08:55:05;14.13;;;8.60;;
3801;SDS011;1916;51.798;12.246;2023-04-21T08:57:08;11.13;;;8.80;;
3801;SDS011;1916;51.798;12.246;2023-04-21T08:59:16;19.00;;;9.00;;
3801;SDS011;1916;51.798;12.246;2023-04-21T09:01:19;12.63;;;8.17;;
3801;SDS011;1916;51.798;12.246;2023-04-21T09:03:21;14.53;;;8.00;;
3801;SDS011;1916;51.798;12.246;2023-04-21T09:05:28;17.53;;;8.70;;
3801;SDS011;1916;51.798;12.246;2023-04-21T09:11:54;13.20;;;8.47;;
3801;SDS011;1916;51.798;12.246;2023-04-21T09:13:57;15.40;;;9.20;;
3801;SDS011;1916;51.798;12.246;2023-04-21T09:16:01;13.27;;;8.90;;
3801;SDS011;1916;51.798;12.246;2023-04-21T09:18:10;13.80;;;8.30;;
3801;SDS011;1916;51.798;12.246;2023-04-21T09:20:15;15.63;;;8.63;;
3801;SDS011;1916;51.798;12.246;2023-04-21T09:22:18;9.97;;;8.00;;
3801;SDS011;1916;51.798;12.246;2023-04-21T09:24:20;12.30;;;8.60;;
3801;SDS011;1916;51.798;12.246;2023-04-21T09:26:22;12.93;;;9.00;;
3801;SDS011;1916;51.798;12.246;2023-04-21T09:28:24;14.60;;;8.60;;
3801;SDS011;1916;51.798;12.246;2023-04-21T09:30:33;12.10;;;8.40;;
3801;SDS011;1916;51.798;12.246;2023-04-21T09:32:40;15.30;;;9.80;;
3801;SDS011;1916;51.798;12.246;2023-04-21T09:34:42;15.00;;;8.93;;
3801;SDS011;1916;51.798;12.246;2023-04-21T09:36:45;11.37;;;9.20;;
3801;SDS011;1916;51.798;12.246;2023-04-21T09:38:48;16.37;;;8.47;;
3801;SDS011;1916;51.798;12.246;2023-04-21T09:41:20;19.87;;;9.40;;
3801;SDS011;1916;51.798;12.246;2023-04-21T09:43:22;12.10;;;8.53;;
3801;SDS011;1916;51.798;12.246;2023-04-21T09:45:25;21.30;;;8.50;;
3801;SDS011;1916;51.798;12.246;2023-04-21T09:47:41;14.33;;;8.50;;
3801;SDS011;1916;51.798;12.246;2023-04-21T09:49:43;11.37;;;8.93;;
3801;SDS011;1916;51.798;12.246;2023-04-21T09:51:46;15.47;;;8.67;;
3801;SDS011;1916;51.798;12.246;2023-04-21T09:54:11;12.30;;;8.80;;
3801;SDS011;1916;51.798;12.246;2023-04-21T09:56:27;12.53;;;7.20;;
3801;SDS011;1916;51.798;12.246;2023-04-21T09:58:32;11.63;;;7.70;;
3801;SDS011;1916;51.798;12.246;2023-04-21T10:00:36;17.13;;;7.83;;
3801;SDS011;1916;51.798;12.246;2023-04-21T10:02:44;11.10;;;8.30;;
3801;SDS011;1916;51.798;12.246;2023-04-21T10:04:52;12.00;;;8.10;;
3801;SDS011;1916;51.798;12.246;2023-04-21T10:06:55;11.97;;;7.57;;
3801;SDS011;1916;51.798;12.246;2023-04-21T10:08:57;12.33;;;7.60;;
3801;SDS011;1916;51.798;12.246;2023-04-21T10:10:59;9.17;;;7.10;;
3801;SDS011;1916;51.798;12.246;2023-04-21T10:13:03;12.03;;;7.40;;
3801;SDS011;1916;51.798;12.246;2023-04-21T10:15:06;13.80;;;7.07;;
3801;SDS011;1916;51.798;12.246;2023-04-21T10:17:35;10.47;;;7.27;;
3801;SDS011;1916;51.798;12.246;2023-04-21T10:19:47;9.77;;;7.30;;
3801;SDS011;1916;51.798;12.246;2023-04-21T10:21:51;11.73;;;7.20;;
3801;SDS011;1916;51.798;12.246;2023-04-21T10:23:57;10.33;;;6.20;;
3801;SDS011;1916;51.798;12.246;2023-04-21T10:26:00;7.20;;;5.53;;
3801;SDS011;1916;51.798;12.246;2023-04-21T10:28:39;9.93;;;5.80;;
3801;SDS011;1916;51.798;12.246;2023-04-21T10:30:45;9.07;;;5.80;;
3801;SDS011;1916;51.798;12.246;2023-04-21T10:32:47;9.00;;;6.00;;
3801;SDS011;1916;51.798;12.246;2023-04-21T10:34:50;9.40;;;5.90;;
3801;SDS011;1916;51.798;12.246;2023-04-21T10:38:59;12.17;;;6.13;;
3801;SDS011;1916;51.798;12.246;2023-04-21T10:41:47;8.37;;;5.10;;
3801;SDS011;1916;51.798;12.246;2023-04-21T10:43:43;9.90;;;5.90;;
3801;SDS011;1916;51.798;12.246;2023-04-21T10:45:50;7.70;;;6.00;;
3801;SDS011;1916;51.798;12.246;2023-04-21T10:47:52;8.33;;;5.90;;
3801;SDS011;1916;51.798;12.246;2023-04-21T10:49:55;10.83;;;4.97;;
3801;SDS011;1916;51.798;12.246;2023-04-21T10:54:03;10.27;;;5.00;;
3801;SDS011;1916;51.798;12.246;2023-04-21T10:56:06;6.17;;;5.00;;
3801;SDS011;1916;51.798;12.246;2023-04-21T10:58:08;8.43;;;5.20;;
3801;SDS011;1916;51.798;12.246;2023-04-21T11:00:14;8.00;;;4.80;;
3801;SDS011;1916;51.798;12.246;2023-04-21T11:02:18;10.27;;;5.57;;
3801;SDS011;1916;51.798;12.246;2023-04-21T11:04:20;6.80;;;5.23;;
3801;SDS011;1916;51.798;12.246;2023-04-21T11:06:25;7.23;;;5.17;;
3801;SDS011;1916;51.798;12.246;2023-04-21T11:08:27;8.70;;;5.10;;
3801;SDS011;1916;51.798;12.246;2023-04-21T11:13:02;9.17;;;5.60;;
3801;SDS011;1916;51.798;12.246;2023-04-21T11:15:05;13.03;;;5.30;;
3801;SDS011;1916;51.798;12.246;2023-04-21T11:17:10;11.13;;;5.40;;
3801;SDS011;1916;51.798;12.246;2023-04-21T11:19:16;13.03;;;5.13;;
3801;SDS011;1916;51.798;12.246;2023-04-21T11:21:18;9.10;;;4.47;;
3801;SDS011;1916;51.798;12.246;2023-04-21T11:23:23;8.97;;;5.47;;
3801;SDS011;1916;51.798;12.246;2023-04-21T11:25:26;7.60;;;4.87;;
3801;SDS011;1916;51.798;12.246;2023-04-21T11:27:28;8.17;;;5.07;;
3801;SDS011;1916;51.798;12.246;2023-04-21T11:29:31;7.50;;;4.50;;
3801;SDS011;1916;51.798;12.246;2023-04-21T11:31:35;6.37;;;5.20;;
3801;SDS011;1916;51.798;12.246;2023-04-21T11:33:38;15.70;;;5.00;;
3801;SDS011;1916;51.798;12.246;2023-04-21T11:35:40;5.93;;;5.23;;
3801;SDS011;1916;51.798;12.246;2023-04-21T11:37:43;8.00;;;4.33;;
3801;SDS011;1916;51.798;12.246;2023-04-21T11:39:45;5.70;;;4.60;;
3801;SDS011;1916;51.798;12.246;2023-04-21T11:41:48;11.20;;;4.60;;
3801;SDS011;1916;51.798;12.246;2023-04-21T11:43:51;5.63;;;4.57;;
3801;SDS011;1916;51.798;12.246;2023-04-21T11:45:53;6.20;;;4.70;;
3801;SDS011;1916;51.798;12.246;2023-04-21T11:48:11;8.10;;;4.23;;
3801;SDS011;1916;51.798;12.246;2023-04-21T11:50:28;6.17;;;3.70;;
3801;SDS011;1916;51.798;12.246;2023-04-21T11:52:32;7.47;;;5.10;;
3801;SDS011;1916;51.798;12.246;2023-04-21T11:54:38;12.10;;;5.30;;
3801;SDS011;1916;51.798;12.246;2023-04-21T11:56:41;6.03;;;4.50;;
3801;SDS011;1916;51.798;12.246;2023-04-21T11:58:44;7.23;;;4.73;;
3801;SDS011;1916;51.798;12.246;2023-04-21T12:00:49;7.80;;;5.10;;
3801;SDS011;1916;51.798;12.246;2023-04-21T12:02:54;7.33;;;5.20;;
3801;SDS011;1916;51.798;12.246;2023-04-21T12:05:02;6.13;;;4.67;;
3801;SDS011;1916;51.798;12.246;2023-04-21T12:07:06;8.23;;;4.90;;
3801;SDS011;1916;51.798;12.246;2023-04-21T12:09:14;7.83;;;4.63;;
3801;SDS011;1916;51.798;12.246;2023-04-21T12:11:18;16.20;;;5.50;;
3801;SDS011;1916;51.798;12.246;2023-04-21T12:13:23;10.60;;;6.10;;
3801;SDS011;1916;51.798;12.246;2023-04-21T12:15:28;12.00;;;5.17;;
3801;SDS011;1916;51.798;12.246;2023-04-21T12:19:49;7.17;;;4.17;;
3801;SDS011;1916;51.798;12.246;2023-04-21T12:21:52;8.63;;;4.57;;
3801;SDS011;1916;51.798;12.246;2023-04-21T12:23:55;6.10;;;4.03;;
3801;SDS011;1916;51.798;12.246;2023-04-21T12:25:58;11.63;;;4.30;;
3801;SDS011;1916;51.798;12.246;2023-04-21T12:28:01;7.87;;;4.37;;
3801;SDS011;1916;51.798;12.246;2023-04-21T12:30:03;7.63;;;4.30;;
3801;SDS011;1916;51.798;12.246;2023-04-21T12:32:07;8.43;;;5.00;;
3801;SDS011;1916;51.798;12.246;2023-04-21T12:34:10;7.37;;;4.47;;